Pagina principale
METAR-TAF:

METAR-TAF

Aeroporti :

Tahiti, Polinesia francese

Aeroporto Internazionale Faa'a

latitudine: 17-33S, longitudine: 149-37W, altezza: 2 m

Osservazione

Il bollettino è stato emesso 29 minuti fa, alle 05:00 UTC
Vento 7 kt da direzioni variabili
Temperature 30°C
Umidità 59%
Pressione 1009 hPa
Visibilità 10 km o più
Poco nuvoloso ad un'altezza di 2000 ft

METAR: NTAA 240500Z VRB07KT 9999 FEW020 30/21 Q1009 NOSIG

Ora: 19:29 (05:29 UTC)

Previsione

Il bollettino è stato emesso 6 ore e 29 minuti fa, alle 23:00 UTC
Previsione valida dal 24 alle 00 UTC al 25 alle 06 UTC
Vento 6 kt da direzioni variabili
Visibilità 10 km o più
Poco nuvoloso ad un'altezza di 2300 ft
Temporaneamente
dal 24 alle 00 UTC al 24 alle 04 UTC
Vento 10 kt da ovest/sud-ovest

TAF: NTAA 232300Z 2400/2506 VRB06KT 9999 FEW023 TEMPO 2400/2404 24010KT

Osservazioni e previsioni meteorologiche di più di 4000 aeroporti (messaggi METAR e TAF).

Le stazioni disponibili sono rappresentate dai dischi gialli e rossi sulla carta.

Puntare il mouse per vedere il nome della stazione.

Clicca sopra per visualizzare le osservazioni e previsioni meteorologiche.

Per cambiare la mappa : fare clic sui pulsanti verdi con una croce nera per ingrandire, il pulsante verde con un trattino per diminuire, o sulla freccia verde per le mappe adiacenti.


METAR-TAF: